Time;durP1;ratioP1;P1;durP2;ratioP2;P2;SDS_P1;SDS_P2;PMS_P1;PMS_P2;Temp;Humidity;BMP_temperature;BMP_pressure;BME280_temperature;BME280_humidity;BME280_pressure;Samples;Min_cycle;Max_cycle;Signal;HPM_P1;HPM_P2
2021/12/08 00:00:36;;;;;;;36.95;20.48;;;;;;;-3.37;70.91;100613.59;5042865;28;20119;-51
2021/12/08 00:03:03;;;;;;;38.08;21.35;;;;;;;-3.35;70.88;100615.41;5044081;28;20140;-51
2021/12/08 00:05:30;;;;;;;35.55;19.98;;;;;;;-3.39;71.26;100612.63;5036293;28;20045;-51
2021/12/08 00:07:56;;;;;;;37.05;19.23;;;;;;;-3.35;71.33;100615.41;5041896;28;20037;-54
2021/12/08 00:15:32;;;;;;;38.83;21.63;;;;;;;-3.31;71.46;100611.25;5036875;28;20069;-52
2021/12/08 00:17:58;;;;;;;37.22;19.40;;;;;;;-3.24;71.63;100592.66;5035915;28;20053;-51
2021/12/08 00:20:27;;;;;;;38.80;20.73;;;;;;;-3.25;71.89;100575.50;5042784;28;20037;-50
2021/12/08 00:22:53;;;;;;;35.70;20.15;;;;;;;-3.27;72.12;100577.13;5057063;28;20376;-50
2021/12/08 00:25:18;;;;;;;37.10;19.80;;;;;;;-3.18;72.60;100569.78;5056724;28;20064;-52
2021/12/08 00:27:43;;;;;;;35.45;18.02;;;;;;;-3.09;72.24;100577.81;5053552;28;20128;-51
2021/12/08 00:30:09;;;;;;;31.98;17.38;;;;;;;-3.02;72.33;100584.06;5034695;28;20045;-50
2021/12/08 00:32:36;;;;;;;34.50;18.33;;;;;;;-2.96;72.37;100581.69;5036652;28;20049;-52
2021/12/08 00:35:04;;;;;;;34.03;17.92;;;;;;;-2.90;71.94;100584.50;5035709;28;20045;-51
2021/12/08 00:37:30;;;;;;;33.65;17.73;;;;;;;-2.79;71.96;100577.19;5036717;28;20507;-50
2021/12/08 00:39:56;;;;;;;34.15;17.15;;;;;;;-2.78;71.99;100574.66;5045617;28;20115;-51
2021/12/08 00:42:22;;;;;;;30.13;17.70;;;;;;;-2.77;72.17;100576.38;5056468;28;20108;-51
2021/12/08 00:44:47;;;;;;;28.35;15.95;;;;;;;-2.68;72.35;100583.53;5056251;28;20392;-49
2021/12/08 00:47:14;;;;;;;32.88;17.92;;;;;;;-2.64;72.06;100576.81;5034428;28;20043;-53
2021/12/08 00:49:40;;;;;;;29.25;15.48;;;;;;;-2.64;72.51;100579.38;5036653;28;20095;-51
2021/12/08 00:52:06;;;;;;;31.70;16.92;;;;;;;-2.63;72.87;100573.41;5035209;28;20033;-50
2021/12/08 00:54:32;;;;;;;28.98;16.67;;;;;;;-2.59;73.32;100571.03;5037405;28;20396;-50
2021/12/08 00:56:58;;;;;;;28.95;15.45;;;;;;;-2.48;72.93;100568.78;5034768;28;20048;-52
2021/12/08 00:59:24;;;;;;;31.58;17.27;;;;;;;-2.40;72.32;100561.34;5036007;28;20033;-51
2021/12/08 01:01:49;;;;;;;28.55;15.90;;;;;;;-2.35;72.27;100567.53;5036333;28;20102;-50
2021/12/08 01:04:15;;;;;;;32.97;18.92;;;;;;;-2.33;72.03;100564.16;5035947;28;20111;-49
2021/12/08 01:06:42;;;;;;;27.35;15.40;;;;;;;-2.29;72.12;100576.31;5036186;28;20040;-49
2021/12/08 01:09:08;;;;;;;27.45;15.13;;;;;;;-2.23;71.99;100575.66;5035710;28;20045;-49
2021/12/08 01:11:33;;;;;;;29.92;17.13;;;;;;;-2.28;72.13;100572.91;5036058;28;20370;-49
2021/12/08 01:13:59;;;;;;;33.30;17.48;;;;;;;-2.28;72.20;100566.88;5034679;28;20190;-49
2021/12/08 01:16:24;;;;;;;29.17;16.02;;;;;;;-2.35;72.47;100563.25;5036229;28;20053;-50
2021/12/08 01:18:50;;;;;;;27.58;14.45;;;;;;;-2.33;72.51;100574.47;5038185;28;20033;-50
2021/12/08 01:21:17;;;;;;;24.38;13.77;;;;;;;-2.37;72.78;100571.72;5035947;28;20033;-50
2021/12/08 01:23:43;;;;;;;29.38;16.10;;;;;;;-2.35;72.59;100570.97;5051992;28;20041;-51
2021/12/08 01:26:09;;;;;;;28.20;15.63;;;;;;;-2.33;72.68;100568.44;5047106;28;20086;-50
2021/12/08 01:28:35;;;;;;;29.02;15.70;;;;;;;-2.44;73.05;100570.66;5055514;28;20503;-49
2021/12/08 01:31:01;;;;;;;27.75;16.13;;;;;;;-2.32;72.74;100572.75;5055459;28;20033;-49
2021/12/08 01:33:30;;;;;;;29.48;15.98;;;;;;;-2.26;72.67;100572.97;5042680;28;20041;-50
2021/12/08 01:35:56;;;;;;;28.50;16.80;;;;;;;-2.24;72.40;100561.88;5035555;28;20120;-49
2021/12/08 01:38:23;;;;;;;26.88;14.95;;;;;;;-2.27;72.36;100548.94;5034089;28;20116;-49
2021/12/08 01:40:49;;;;;;;29.23;14.52;;;;;;;-2.22;71.98;100538.78;5042750;28;20042;-49
2021/12/08 01:43:27;;;;;;;24.75;13.80;;;;;;;-2.24;72.28;100528.41;5035867;28;20033;-49
2021/12/08 01:46:05;;;;;;;22.52;13.43;;;;;;;-2.17;71.79;100536.34;5037164;28;20045;-49
2021/12/08 01:48:37;;;;;;;25.17;13.98;;;;;;;-2.24;72.06;100528.41;5054072;28;20060;-49
2021/12/08 01:51:09;;;;;;;24.17;12.90;;;;;;;-2.28;72.27;100526.56;5044453;28;20064;-50
2021/12/08 01:53:34;;;;;;;22.75;13.05;;;;;;;-2.29;72.11;100529.97;5035907;28;20057;-49
2021/12/08 01:56:00;;;;;;;24.52;13.35;;;;;;;-2.26;72.37;100529.22;5035127;28;20037;-52
2021/12/08 01:58:26;;;;;;;28.48;15.88;;;;;;;-2.35;72.31;100540.09;5035585;28;20033;-49
2021/12/08 02:00:56;;;;;;;25.08;14.70;;;;;;;-2.41;72.59;100542.44;5037404;28;20484;-51
2021/12/08 02:03:23;;;;;;;30.52;15.73;;;;;;;-2.42;73.25;100539.84;5035149;28;20032;-51
2021/12/08 02:05:49;;;;;;;33.45;17.02;;;;;;;-2.37;72.35;100530.56;5044503;28;20108;-51
2021/12/08 02:08:15;;;;;;;29.60;16.35;;;;;;;-2.38;72.29;100529.69;5046482;28;20049;-48
2021/12/08 02:10:41;;;;;;;32.72;16.88;;;;;;;-2.40;72.38;100530.44;5053777;28;20057;-51
2021/12/08 02:13:08;;;;;;;29.15;15.23;;;;;;;-2.39;72.30;100538.25;5053273;28;20502;-51
2021/12/08 02:15:35;;;;;;;28.20;15.00;;;;;;;-2.35;72.22;100534.94;5050478;28;20041;-51
2021/12/08 02:18:02;;;;;;;34.05;17.40;;;;;;;-2.37;72.10;100515.97;5034538;28;20068;-52
2021/12/08 02:20:28;;;;;;;29.55;15.98;;;;;;;-2.35;71.84;100506.63;5035404;28;20026;-51
2021/12/08 02:22:54;;;;;;;26.52;14.60;;;;;;;-2.30;71.92;100517.94;5035026;28;20484;-51
2021/12/08 02:25:23;;;;;;;29.40;15.80;;;;;;;-2.27;72.15;100518.03;5034692;28;20053;-51
2021/12/08 02:27:50;;;;;;;30.05;15.98;;;;;;;-2.31;71.73;100526.50;5050865;28;20091;-50
2021/12/08 02:48:55;;;;;;;25.80;14.43;;;;;;;-2.41;71.59;100514.13;5034541;28;20086;-50
2021/12/08 02:51:21;;;;;;;27.10;14.77;;;;;;;-2.42;71.52;100508.94;5034010;28;20041;-50
2021/12/08 02:53:47;;;;;;;27.23;15.85;;;;;;;-2.43;71.74;100512.31;5033856;28;20030;-49
2021/12/08 02:56:15;;;;;;;25.05;13.60;;;;;;;-2.40;71.85;100504.72;5037787;28;20040;-49
2021/12/08 02:58:40;;;;;;;28.88;14.25;;;;;;;-2.38;71.54;100514.25;5053909;28;20464;-49
2021/12/08 03:01:08;;;;;;;22.35;12.20;;;;;;;-2.36;71.52;100510.00;5038656;28;20025;-50
2021/12/08 03:03:34;;;;;;;24.17;13.02;;;;;;;-2.35;71.57;100516.06;5033939;28;20036;-48
2021/12/08 03:06:00;;;;;;;22.75;13.38;;;;;;;-2.34;71.31;100507.50;5016025;28;20060;-49
2021/12/08 03:08:26;;;;;;;26.10;14.10;;;;;;;-2.35;71.57;100509.19;5033749;28;20084;-49
2021/12/08 03:10:52;;;;;;;20.52;11.80;;;;;;;-2.31;71.56;100505.91;5034023;28;20041;-48
2021/12/08 03:13:27;;;;;;;23.27;11.90;;;;;;;-2.22;71.07;100520.75;5033510;28;20072;-48
2021/12/08 03:15:53;;;;;;;19.25;11.00;;;;;;;-2.20;71.26;100513.06;5032723;28;20049;-49
2021/12/08 03:18:18;;;;;;;18.05;9.32;;;;;;;-2.14;71.11;100510.72;5047310;28;20083;-50
2021/12/08 03:20:45;;;;;;;16.80;9.23;;;;;;;-2.13;71.10;100510.75;5053614;28;20029;-49
2021/12/08 03:23:16;;;;;;;17.95;10.00;;;;;;;-2.10;71.25;100504.84;5038192;28;20061;-48
2021/12/08 03:25:44;;;;;;;16.02;8.63;;;;;;;-2.08;70.43;100511.75;5032218;28;20045;-52
2021/12/08 03:28:22;;;;;;;14.75;8.23;;;;;;;-2.04;70.41;100507.56;5033984;28;20045;-50
2021/12/08 03:31:09;;;;;;;12.93;7.70;;;;;;;-2.04;69.96;100511.03;5032255;28;20033;-50
2021/12/08 03:33:35;;;;;;;13.95;7.82;;;;;;;-2.08;70.09;100523.75;5036581;28;20107;-51
2021/12/08 03:36:01;;;;;;;12.13;7.50;;;;;;;-2.08;70.06;100513.47;5032139;28;20465;-50
2021/12/08 03:38:28;;;;;;;13.38;8.13;;;;;;;-2.13;69.84;100518.47;5032200;28;20083;-50
2021/12/08 03:40:56;;;;;;;12.18;7.57;;;;;;;-2.07;69.62;100521.25;5033340;28;20113;-49
2021/12/08 03:43:21;;;;;;;12.82;7.70;;;;;;;-2.11;69.54;100521.13;5033025;28;20037;-54
2021/12/08 03:45:50;;;;;;;11.38;7.03;;;;;;;-2.18;69.88;100519.16;5051000;28;20041;-49
2021/12/08 03:48:30;;;;;;;12.07;7.70;;;;;;;-2.20;69.84;100525.94;5036174;28;20064;-49
2021/12/08 03:50:57;;;;;;;13.57;7.68;;;;;;;-2.20;69.89;100524.25;5043359;28;20471;-52
2021/12/08 03:53:22;;;;;;;14.93;8.68;;;;;;;-2.17;69.97;100523.47;5031727;28;20029;-51
2021/12/08 03:55:50;;;;;;;12.40;7.55;;;;;;;-2.15;69.65;100521.84;5032112;28;20483;-49
2021/12/08 03:58:16;;;;;;;12.77;7.80;;;;;;;-2.23;70.11;100519.03;5033399;28;20034;-48
2021/12/08 04:00:43;;;;;;;13.82;8.10;;;;;;;-2.24;69.70;100518.13;5034410;28;20047;-52
2021/12/08 04:03:11;;;;;;;11.70;6.93;;;;;;;-2.15;69.84;100525.28;5035395;28;20061;-49
2021/12/08 04:05:44;;;;;;;14.57;8.40;;;;;;;-2.16;69.58;100520.06;5051879;28;20029;-49
2021/12/08 04:08:17;;;;;;;11.65;7.20;;;;;;;-2.11;69.50;100518.53;5053221;28;20068;-50
2021/12/08 04:10:47;;;;;;;10.63;6.63;;;;;;;-2.11;69.43;100518.53;5048582;28;20083;-50
2021/12/08 04:13:15;;;;;;;13.38;8.02;;;;;;;-2.03;69.14;100517.06;5033603;28;20037;-50
2021/12/08 04:15:41;;;;;;;13.30;8.35;;;;;;;-2.04;69.05;100520.47;5032996;28;20087;-52
2021/12/08 04:18:07;;;;;;;14.70;8.70;;;;;;;-2.02;69.20;100516.25;5050218;28;20041;-51
2021/12/08 04:20:41;;;;;;;16.70;10.73;;;;;;;-2.13;69.37;100512.44;5052965;28;20110;-51
2021/12/08 04:23:09;;;;;;;16.63;10.93;;;;;;;-2.27;69.58;100507.75;5051935;28;20112;-51
2021/12/08 04:25:39;;;;;;;15.48;9.85;;;;;;;-2.15;69.59;100519.28;5036124;28;20038;-50
2021/12/08 04:28:11;;;;;;;19.45;11.63;;;;;;;-2.21;69.59;100513.91;5033028;28;20040;-52
2021/12/08 04:30:48;;;;;;;16.77;10.15;;;;;;;-2.16;69.54;100515.78;5033222;28;20034;-50
2021/12/08 04:33:14;;;;;;;18.17;10.38;;;;;;;-2.25;69.89;100503.50;5037284;28;20116;-50
2021/12/08 04:35:41;;;;;;;16.20;9.75;;;;;;;-2.10;69.67;100510.84;5050345;28;20179;-50
2021/12/08 04:38:10;;;;;;;15.93;10.15;;;;;;;-2.13;69.93;100505.59;5045506;28;20032;-51
2021/12/08 04:40:52;;;;;;;15.05;9.70;;;;;;;-2.11;69.78;100509.09;5031658;28;20488;-50
2021/12/08 04:46:09;;;;;;;17.58;11.63;;;;;;;-2.13;69.37;100495.31;5039194;28;20073;-50
2021/12/08 05:10:01;;;;;;;23.85;13.95;;;;;;;-2.24;69.22;100500.09;5036088;28;20034;-50
2021/12/08 05:12:31;;;;;;;47.78;23.90;;;;;;;-2.31;69.23;100495.59;5035711;28;20033;-53
2021/12/08 05:15:00;;;;;;;35.28;19.48;;;;;;;-2.32;69.14;100498.13;5043810;28;20108;-51
2021/12/08 05:17:33;;;;;;;18.75;12.38;;;;;;;-2.25;69.22;100495.78;5045191;28;20044;-51
2021/12/08 05:20:05;;;;;;;18.23;11.95;;;;;;;-2.22;69.18;100496.72;5048573;28;20033;-50
2021/12/08 05:22:39;;;;;;;19.50;11.80;;;;;;;-2.27;69.21;100496.59;5055045;28;20137;-51
2021/12/08 05:25:09;;;;;;;18.83;11.52;;;;;;;-2.39;70.25;100491.91;5046800;28;20095;-50
2021/12/08 05:27:46;;;;;;;35.10;17.77;;;;;;;-2.50;70.25;100493.25;5042857;28;20037;-52
2021/12/08 05:30:15;;;;;;;29.25;12.77;;;;;;;-2.52;70.26;100497.47;5035721;28;20048;-49
2021/12/08 05:32:41;;;;;;;34.65;14.60;;;;;;;-2.34;70.02;100490.34;5034406;28;20033;-50
2021/12/08 05:35:10;;;;;;;35.38;15.73;;;;;;;-2.33;69.97;100492.09;5049387;28;20029;-50
2021/12/08 05:37:36;;;;;;;34.63;15.93;;;;;;;-2.26;70.20;100483.75;5040274;28;20422;-49
2021/12/08 05:40:07;;;;;;;42.08;17.35;;;;;;;-2.22;69.41;100492.44;5034047;28;20078;-52
2021/12/08 05:42:35;;;;;;;41.63;16.95;;;;;;;-2.21;69.27;100467.56;5033968;28;20026;-50
2021/12/08 05:45:06;;;;;;;25.77;11.18;;;;;;;-2.35;69.35;100462.00;5027983;28;20114;-53
2021/12/08 05:47:32;;;;;;;26.45;12.48;;;;;;;-2.35;69.40;100460.31;5053853;28;20041;-50
2021/12/08 05:49:58;;;;;;;24.67;10.80;;;;;;;-2.40;68.98;100454.13;5055696;28;20036;-49
2021/12/08 05:52:24;;;;;;;23.40;11.55;;;;;;;-2.42;69.17;100457.50;5047307;28;20484;-50
2021/12/08 05:54:51;;;;;;;21.27;10.63;;;;;;;-2.39;69.14;100448.16;5049384;28;20037;-51
2021/12/08 05:57:27;;;;;;;18.00;8.98;;;;;;;-2.32;69.78;100438.91;5033821;28;20185;-49
2021/12/08 05:59:53;;;;;;;19.48;10.00;;;;;;;-2.27;69.16;100435.69;5035035;28;20030;-52
2021/12/08 06:02:24;;;;;;;27.63;12.73;;;;;;;-2.24;68.82;100440.91;5017311;28;20034;-51
2021/12/08 06:04:50;;;;;;;33.17;15.00;;;;;;;-2.37;69.06;100438.78;5035740;28;20055;-51
2021/12/08 06:07:21;;;;;;;27.65;12.52;;;;;;;-2.57;69.40;100445.88;5033727;28;20456;-53
2021/12/08 06:09:48;;;;;;;23.95;11.68;;;;;;;-2.43;69.47;100450.56;5036817;28;20091;-51
2021/12/08 06:12:14;;;;;;;23.02;12.05;;;;;;;-2.49;69.59;100453.84;5050000;28;20037;-51
2021/12/08 06:14:40;;;;;;;36.08;15.90;;;;;;;-2.45;69.49;100455.69;5035526;28;20052;-50
2021/12/08 06:17:18;;;;;;;24.45;11.57;;;;;;;-2.44;69.61;100452.28;5034744;28;20044;-50
2021/12/08 06:19:45;;;;;;;27.40;12.55;;;;;;;-2.34;69.61;100462.03;5036890;28;20025;-50
2021/12/08 06:22:13;;;;;;;25.80;13.60;;;;;;;-2.37;69.02;100459.38;5033029;28;20459;-50
2021/12/08 06:24:40;;;;;;;20.45;11.63;;;;;;;-2.38;69.36;100462.78;5043102;28;20045;-50
2021/12/08 06:27:06;;;;;;;19.65;11.10;;;;;;;-2.36;69.50;100465.38;5054513;28;20044;-50
2021/12/08 06:29:32;;;;;;;16.98;9.93;;;;;;;-2.30;69.12;100474.19;5047673;28;20034;-52
2021/12/08 06:32:00;;;;;;;17.30;9.75;;;;;;;-2.28;68.87;100469.06;5034359;28;20071;-50
2021/12/08 06:34:27;;;;;;;23.77;12.50;;;;;;;-2.22;69.10;100470.97;5033987;28;20042;-50
2021/12/08 06:36:59;;;;;;;23.98;12.38;;;;;;;-2.29;68.77;100482.78;5019965;28;20511;-53
2021/12/08 06:39:33;;;;;;;21.70;12.73;;;;;;;-2.34;68.74;100484.34;5034500;28;20519;-54
2021/12/08 06:42:04;;;;;;;15.00;9.82;;;;;;;-2.36;69.04;100484.28;5051539;28;20044;-53
2021/12/08 06:44:33;;;;;;;13.85;8.52;;;;;;;-2.31;68.79;100480.16;5054053;28;20032;-53
2021/12/08 06:47:03;;;;;;;15.30;9.63;;;;;;;-2.45;68.74;100480.53;5051191;28;20108;-52
2021/12/08 06:49:30;;;;;;;17.80;10.35;;;;;;;-2.31;68.75;100480.16;5041129;28;20029;-51
2021/12/08 06:52:01;;;;;;;15.68;9.35;;;;;;;-2.37;68.59;100487.69;5037667;28;20443;-50
2021/12/08 06:54:40;;;;;;;20.65;11.27;;;;;;;-2.38;68.35;100491.09;5036337;28;20049;-50
2021/12/08 06:57:17;;;;;;;18.05;9.88;;;;;;;-2.43;68.93;100490.06;5016755;28;20032;-51
2021/12/08 06:59:55;;;;;;;19.70;11.70;;;;;;;-2.44;69.03;100497.72;5035248;28;20053;-51
2021/12/08 07:05:25;;;;;;;22.15;12.65;;;;;;;-2.65;69.43;100493.63;5036664;28;20102;-52
2021/12/08 07:07:53;;;;;;;22.25;12.32;;;;;;;-2.65;69.29;100493.63;5041954;28;20107;-51
2021/12/08 07:10:32;;;;;;;19.85;11.25;;;;;;;-2.64;69.09;100499.63;5033593;28;20029;-52
2021/12/08 07:13:06;;;;;;;18.17;10.45;;;;;;;-2.73;69.16;100495.06;5032344;28;20112;-51
2021/12/08 07:15:31;;;;;;;17.23;10.93;;;;;;;-2.62;69.16;100498.00;5033170;28;20120;-49
2021/12/08 07:18:00;;;;;;;17.48;10.10;;;;;;;-2.69;68.63;100496.03;5038084;28;20128;-49
2021/12/08 07:23:12;;;;;;;15.98;10.30;;;;;;;-2.71;69.11;100493.44;5046917;28;20043;-51
2021/12/08 07:25:38;;;;;;;17.52;9.77;;;;;;;-2.65;68.85;100492.75;5032677;28;20099;-50
2021/12/08 07:28:06;;;;;;;17.80;10.55;;;;;;;-2.70;68.99;100484.88;5040543;28;20090;-53
2021/12/08 07:30:43;;;;;;;17.60;11.45;;;;;;;-2.62;68.96;100498.00;5031066;28;20037;-50
2021/12/08 07:33:08;;;;;;;21.65;12.82;;;;;;;-2.67;68.91;100500.44;5037426;28;20033;-52
2021/12/08 07:35:42;;;;;;;21.88;12.10;;;;;;;-2.69;68.52;100496.91;5033909;28;20064;-54
2021/12/08 07:38:11;;;;;;;20.42;11.85;;;;;;;-2.67;68.38;100491.81;5034569;28;20092;-50
2021/12/08 07:40:43;;;;;;;23.83;14.25;;;;;;;-2.79;68.40;100494.88;5041280;28;20057;-52
2021/12/08 07:43:13;;;;;;;26.95;15.13;;;;;;;-2.81;68.38;100491.34;5052052;28;20074;-49
2021/12/08 07:45:46;;;;;;;26.13;14.35;;;;;;;-2.86;68.75;100498.06;5047909;28;20059;-49
2021/12/08 07:48:18;;;;;;;22.52;13.15;;;;;;;-2.84;69.50;100492.13;5049088;28;20056;-50
2021/12/08 07:50:57;;;;;;;24.17;13.52;;;;;;;-2.75;69.20;100491.59;5041287;28;20059;-51
2021/12/08 07:53:25;;;;;;;32.97;16.05;;;;;;;-2.74;68.67;100485.59;5050114;28;20432;-51
2021/12/08 07:55:58;;;;;;;31.42;17.15;;;;;;;-2.76;68.82;100484.66;5051001;28;20043;-51
2021/12/08 07:58:23;;;;;;;28.48;16.17;;;;;;;-2.72;68.48;100474.53;5043755;28;20036;-52
2021/12/08 08:01:01;;;;;;;24.42;14.27;;;;;;;-2.78;68.77;100476.91;5047892;28;20036;-55
2021/12/08 08:03:30;;;;;;;25.20;14.85;;;;;;;-2.74;68.97;100478.75;5052964;28;20043;-53
2021/12/08 08:05:56;;;;;;;25.52;14.65;;;;;;;-2.64;68.47;100468.75;5043908;28;20465;-51
2021/12/08 08:08:25;;;;;;;22.60;13.75;;;;;;;-2.53;68.04;100467.44;5031554;28;20034;-49
2021/12/08 08:10:59;;;;;;;26.88;14.80;;;;;;;-2.61;67.33;100464.59;5032779;28;20032;-50
2021/12/08 08:13:27;;;;;;;21.88;13.55;;;;;;;-2.57;67.67;100460.44;5033151;28;20501;-50
2021/12/08 08:16:04;;;;;;;24.92;14.82;;;;;;;-2.61;67.74;100461.16;5032837;28;20472;-52
2021/12/08 08:18:31;;;;;;;24.90;14.48;;;;;;;-2.57;67.21;100452.72;5035179;28;20044;-53
2021/12/08 08:21:02;;;;;;;23.73;14.15;;;;;;;-2.62;67.14;100457.72;5035323;28;20037;-51
2021/12/08 08:23:31;;;;;;;25.55;14.27;;;;;;;-2.61;67.46;100459.44;5036611;28;20167;-51
2021/12/08 08:25:58;;;;;;;25.73;15.32;;;;;;;-2.57;67.05;100456.16;5036568;28;20120;-53
2021/12/08 08:28:24;;;;;;;24.00;14.27;;;;;;;-2.57;67.34;100463.00;5035149;28;20315;-50
2021/12/08 08:31:05;;;;;;;22.02;12.10;;;;;;;-2.44;66.83;100475.44;5034719;28;20175;-50
2021/12/08 08:33:32;;;;;;;19.90;11.50;;;;;;;-2.50;67.46;100462.38;5031967;28;20065;-52
2021/12/08 08:36:04;;;;;;;19.50;12.20;;;;;;;-2.49;67.20;100466.69;5018726;28;20030;-49
2021/12/08 08:38:59;;;;;;;21.25;12.50;;;;;;;-2.56;66.55;100467.31;5036427;28;20037;-50
2021/12/08 08:41:33;;;;;;;22.90;13.43;;;;;;;-2.58;67.22;100474.13;5034945;28;20036;-50
2021/12/08 08:44:04;;;;;;;22.17;12.48;;;;;;;-2.87;67.96;100471.47;5043518;28;20174;-53
2021/12/08 08:46:35;;;;;;;23.08;12.30;;;;;;;-2.95;68.01;100466.84;5050508;28;20029;-50
2021/12/08 08:49:06;;;;;;;25.08;13.52;;;;;;;-2.84;70.04;100475.81;5044161;28;20127;-53
2021/12/08 08:51:41;;;;;;;26.08;14.18;;;;;;;-2.62;67.95;100473.16;5036319;28;20037;-52
2021/12/08 08:54:19;;;;;;;21.48;12.07;;;;;;;-2.48;66.90;100469.31;5038600;28;20025;-52
2021/12/08 08:56:50;;;;;;;18.92;11.90;;;;;;;-2.48;66.64;100482.16;5034711;28;20034;-52
2021/12/08 08:59:25;;;;;;;21.90;12.30;;;;;;;-2.53;66.47;100478.59;5046906;28;20117;-51
2021/12/08 09:01:53;;;;;;;20.50;11.48;;;;;;;-2.50;66.41;100468.41;5055043;28;20037;-52
2021/12/08 09:04:27;;;;;;;21.33;12.57;;;;;;;-2.49;67.22;100469.28;5037320;28;20091;-49
2021/12/08 09:06:56;;;;;;;19.50;12.15;;;;;;;-2.44;65.96;100471.97;5049121;28;20044;-53
2021/12/08 09:09:27;;;;;;;20.25;12.02;;;;;;;-2.68;64.90;100485.78;5053169;28;20041;-50
2021/12/08 09:12:00;;;;;;;18.80;11.82;;;;;;;-2.60;66.12;100470.63;5037997;28;20090;-52
2021/12/08 09:14:32;;;;;;;19.60;11.82;;;;;;;-2.42;67.78;100471.22;5035296;28;20037;-50
2021/12/08 09:17:09;;;;;;;18.80;11.77;;;;;;;-2.49;65.02;100462.41;5034361;28;20034;-53
2021/12/08 09:19:43;;;;;;;20.08;10.93;;;;;;;-2.41;66.36;100467.81;5038766;28;20499;-53
2021/12/08 09:22:18;;;;;;;26.15;13.93;;;;;;;-2.31;65.87;100467.28;5055420;28;20029;-52
2021/12/08 09:24:59;;;;;;;20.58;12.20;;;;;;;-2.25;64.66;100464.91;5048577;28;20483;-49
2021/12/08 09:27:32;;;;;;;18.13;11.60;;;;;;;-2.21;65.67;100468.44;5048008;28;20033;-50
2021/12/08 09:29:59;;;;;;;;;;;;;;;-2.20;63.32;100469.31;5048375;28;20037;-53
2021/12/08 09:32:36;;;;;;;20.58;11.50;;;;;;;-2.18;64.68;100459.94;5043401;28;19959;-52
2021/12/08 09:35:10;;;;;;;24.80;13.70;;;;;;;-2.15;65.24;100460.06;5035416;28;20029;-52
2021/12/08 09:37:44;;;;;;;23.80;14.00;;;;;;;-2.05;64.17;100465.50;5052249;28;20037;-53
2021/12/08 09:40:19;;;;;;;23.52;13.65;;;;;;;-2.00;64.67;100468.22;5053690;28;20025;-53
2021/12/08 09:42:49;;;;;;;25.15;14.50;;;;;;;-1.94;64.13;100455.53;5048286;28;20038;-51
2021/12/08 09:45:21;;;;;;;24.52;16.00;;;;;;;-1.95;63.95;100458.09;5046680;28;20561;-49
2021/12/08 09:47:47;;;;;;;23.30;14.98;;;;;;;-1.83;63.70;100459.31;5053644;28;20033;-50
2021/12/08 09:50:15;;;;;;;23.33;13.07;;;;;;;-1.91;63.58;100450.50;5055204;28;20045;-53
2021/12/08 09:52:43;;;;;;;22.92;13.25;;;;;;;-1.88;63.35;100450.56;5049178;28;20112;-52
2021/12/08 09:55:12;;;;;;;18.15;11.63;;;;;;;-1.82;63.70;100453.31;5033831;28;20038;-51
2021/12/08 09:57:38;;;;;;;20.45;11.95;;;;;;;-1.73;64.32;100451.00;5017509;28;20495;-52
2021/12/08 10:00:08;;;;;;;23.13;14.05;;;;;;;-1.80;63.22;100441.34;5046007;28;20037;-52
2021/12/08 10:02:35;;;;;;;22.95;13.18;;;;;;;-1.75;62.88;100452.69;5053668;28;20440;-53
2021/12/08 10:05:16;;;;;;;22.52;12.98;;;;;;;-1.78;62.08;100450.00;5036544;28;20124;-51
2021/12/08 10:07:43;;;;;;;25.70;15.10;;;;;;;-1.80;62.80;100441.34;5034699;28;20594;-53
2021/12/08 10:10:12;;;;;;;22.38;12.82;;;;;;;-1.78;64.25;100436.25;5034145;28;20029;-54
2021/12/08 10:12:38;;;;;;;20.52;12.00;;;;;;;-1.69;65.64;100430.50;5054682;28;20025;-51
2021/12/08 10:15:10;;;;;;;26.50;15.50;;;;;;;-1.66;62.26;100428.00;5035746;28;20029;-49
2021/12/08 10:17:35;;;;;;;106.80;53.05;;;;;;;-1.84;63.02;100430.91;5054565;28;20029;-49
2021/12/08 10:20:16;;;;;;;40.55;21.70;;;;;;;-1.86;62.37;100428.31;5047524;28;20048;-52
2021/12/08 10:22:44;;;;;;;76.13;34.67;;;;;;;-1.81;62.64;100436.16;5033543;28;20053;-50
2021/12/08 10:25:15;;;;;;;245.73;90.22;;;;;;;-2.01;62.89;100430.44;5034628;28;20042;-51
2021/12/08 10:28:03;;;;;;;47.83;24.40;;;;;;;-2.07;63.68;100428.56;5046338;28;20029;-50
2021/12/08 10:30:29;;;;;;;35.10;20.63;;;;;;;-1.95;63.29;100433.19;5054384;28;20025;-50
2021/12/08 10:32:55;;;;;;;39.75;20.45;;;;;;;-1.89;63.19;100424.75;5042031;28;20429;-54
2021/12/08 10:35:42;;;;;;;52.90;24.10;;;;;;;-1.81;62.37;100431.00;5041333;28;20120;-49
2021/12/08 10:38:08;;;;;;;50.72;23.20;;;;;;;-1.91;63.28;100427.31;5051398;28;20036;-49
2021/12/08 10:40:34;;;;;;;30.92;16.75;;;;;;;-1.85;62.86;100416.31;5044770;28;20037;-50
2021/12/08 10:43:16;;;;;;;31.13;16.55;;;;;;;-1.99;62.71;100421.94;5046102;28;20030;-51
2021/12/08 10:45:41;;;;;;;43.95;22.55;;;;;;;-2.04;62.90;100417.47;5037485;28;20047;-54
2021/12/08 10:48:08;;;;;;;40.35;21.80;;;;;;;-2.06;63.56;100403.69;5051843;28;20032;-50
2021/12/08 10:56:19;;;;;;;60.97;32.83;;;;;;;-1.94;62.23;100398.03;5054233;28;20095;-53
2021/12/08 10:58:50;;;;;;;56.90;29.10;;;;;;;-2.09;62.27;100381.28;5053802;28;20142;-51
2021/12/08 11:01:17;;;;;;;56.05;28.52;;;;;;;-2.09;62.76;100380.41;5052348;28;20035;-53
2021/12/08 11:03:44;;;;;;;81.72;31.02;;;;;;;-2.12;62.44;100383.75;5052478;28;20442;-55
2021/12/08 11:06:13;;;;;;;103.15;41.85;;;;;;;-2.32;62.97;100384.88;5035836;28;20029;-54
2021/12/08 11:08:40;;;;;;;112.95;39.67;;;;;;;-2.26;62.95;100380.78;5036230;28;20094;-52
2021/12/08 11:11:20;;;;;;;69.47;26.88;;;;;;;-2.28;62.26;100379.84;5052307;28;20037;-49
2021/12/08 11:14:05;;;;;;;40.45;20.95;;;;;;;-2.33;61.95;100370.25;5052221;28;20057;-54
2021/12/08 11:16:36;;;;;;;28.15;16.67;;;;;;;-2.22;63.32;100365.44;5036167;28;20041;-55
2021/12/08 11:19:05;;;;;;;26.80;16.00;;;;;;;-2.19;63.19;100365.50;5053642;28;20029;-52
2021/12/08 11:21:38;;;;;;;25.67;15.38;;;;;;;-2.06;62.91;100357.34;5052219;28;20029;-51
2021/12/08 11:24:10;;;;;;;97.25;34.75;;;;;;;-2.04;62.14;100363.38;5053529;28;20051;-51
2021/12/08 11:26:41;;;;;;;47.08;22.75;;;;;;;-2.17;62.83;100363.88;5052346;28;20063;-54
2021/12/08 11:29:09;;;;;;;44.97;22.83;;;;;;;-2.33;62.81;100368.56;5053535;28;20025;-51
2021/12/08 11:31:59;;;;;;;75.70;31.52;;;;;;;-2.40;62.64;100353.75;5053419;28;20037;-49
2021/12/08 11:34:28;;;;;;;98.70;37.40;;;;;;;-2.46;63.18;100358.72;5053357;28;20033;-50
2021/12/08 11:36:57;;;;;;;39.47;19.23;;;;;;;-2.50;64.38;100362.03;5048128;28;20024;-53
2021/12/08 11:39:32;;;;;;;62.80;26.23;;;;;;;-2.49;63.22;100361.19;5051983;28;20025;-53
2021/12/08 11:42:06;;;;;;;45.25;20.55;;;;;;;-2.60;62.84;100367.72;5051958;28;20025;-53
2021/12/08 11:44:37;;;;;;;31.45;15.15;;;;;;;-2.53;63.40;100369.66;5052464;28;20029;-54
2021/12/08 11:47:10;;;;;;;55.50;22.63;;;;;;;-2.66;62.92;100364.97;5050827;28;20379;-53
2021/12/08 11:49:48;;;;;;;30.98;16.50;;;;;;;-2.64;62.51;100360.72;5050982;28;20388;-50
2021/12/08 11:52:19;;;;;;;25.55;13.88;;;;;;;-2.52;63.02;100356.81;5035534;28;20041;-52
2021/12/08 11:54:53;;;;;;;32.00;16.77;;;;;;;-2.52;62.66;100361.09;5032880;28;20029;-53
2021/12/08 11:57:23;;;;;;;24.63;14.65;;;;;;;-2.46;62.90;100363.88;5033934;28;20072;-54
2021/12/08 12:00:00;;;;;;;30.52;16.77;;;;;;;-2.41;62.99;100370.03;5035641;28;20037;-55
2021/12/08 12:02:31;;;;;;;28.58;17.02;;;;;;;-2.33;62.53;100363.41;5036227;28;20041;-53
2021/12/08 12:04:58;;;;;;;32.53;17.58;;;;;;;-2.22;62.76;100360.28;5035325;28;20568;-49
2021/12/08 12:07:23;;;;;;;27.77;16.83;;;;;;;-2.18;62.59;100369.84;5034628;28;20025;-50
2021/12/08 12:09:50;;;;;;;26.88;15.52;;;;;;;-2.11;62.54;100371.78;5036263;28;20461;-51
2021/12/08 12:12:16;;;;;;;25.50;15.43;;;;;;;-2.20;62.61;100369.78;5034657;28;20025;-50
2021/12/08 12:14:42;;;;;;;25.25;14.32;;;;;;;-2.25;62.31;100359.34;5034078;28;20171;-53
2021/12/08 12:17:08;;;;;;;26.17;16.15;;;;;;;-2.24;61.82;100352.50;5035112;28;20037;-51
2021/12/08 12:19:41;;;;;;;36.08;19.40;;;;;;;-2.20;63.17;100353.47;5033798;28;20037;-55